Time;durP1;ratioP1;P1;durP2;ratioP2;P2;SDS_P1;SDS_P2;PMS_P1;PMS_P2;Temp;Humidity;BMP_temperature;BMP_pressure;BME280_temperature;BME280_humidity;BME280_pressure;Samples;Min_cycle;Max_cycle;Signal;HPM_P1;HPM_P2
2022/07/05 00:00:10;;;;;;;4.28;2.80;;;;;;;;;;4275576;33;20140;-69
2022/07/05 00:02:36;;;;;;;4.18;3.03;;;;;;;;;;4275419;33;20523;-71
2022/07/05 00:33:53;;;;;;;7.40;2.70;;;;;;;;;;4556081;28;20114;-71
2022/07/05 00:36:19;;;;;;;3.22;2.80;;;;;;;;;;4177418;34;20184;-73
2022/07/05 00:38:45;;;;;;;3.03;2.72;;;;;;;;;;4177437;34;20170;-72
2022/07/05 00:41:11;;;;;;;9.25;2.97;;;;;;;;;;4177305;34;20142;-73
2022/07/05 00:43:37;;;;;;;9.02;2.58;;;;;;;;;;4177395;34;20138;-71
2022/07/05 00:46:03;;;;;;;8.07;2.80;;;;;;;;;;4177325;34;20268;-71
2022/07/05 00:48:29;;;;;;;8.70;2.70;;;;;;;;;;4164610;34;20122;-70
2022/07/05 00:50:55;;;;;;;2.83;2.53;;;;;;;;;;4177468;34;20243;-69
2022/07/05 00:53:21;;;;;;;4.78;2.58;;;;;;;;;;4164523;34;20202;-70
2022/07/05 00:55:47;;;;;;;3.72;2.42;;;;;;;;;;4164604;34;20134;-73
2022/07/05 00:58:13;;;;;;;7.75;3.08;;;;;;;;;;4177129;34;20114;-69
2022/07/05 01:00:40;;;;;;;6.80;3.12;;;;;;;;;;4164739;34;20148;-74
2022/07/05 01:03:06;;;;;;;3.60;2.60;;;;;;;;;;4177214;34;20126;-73
2022/07/05 01:05:32;;;;;;;3.95;2.70;;;;;;;;;;4176735;34;20122;-72
2022/07/05 01:08:00;;;;;;;3.05;2.55;;;;;;;;;;4166418;34;20133;-72
2022/07/05 01:10:27;;;;;;;2.40;2.20;;;;;;;;;;4166618;34;20114;-69
2022/07/05 01:12:53;;;;;;;8.85;2.45;;;;;;;;;;4177043;34;20134;-70
2022/07/05 01:15:21;;;;;;;5.03;2.47;;;;;;;;;;4165248;34;20126;-71
2022/07/05 01:17:48;;;;;;;2.75;2.20;;;;;;;;;;4177010;34;20187;-71
2022/07/05 01:20:14;;;;;;;2.65;2.00;;;;;;;;;;4176999;34;20130;-71
2022/07/05 01:22:56;;;;;;;2.62;2.12;;;;;;;;;;4164292;34;20114;-70
2022/07/05 01:25:24;;;;;;;7.55;2.08;;;;;;;;;;4164259;34;20519;-69
2022/07/05 01:27:51;;;;;;;2.97;2.17;;;;;;;;;;4176999;34;20099;-73
2022/07/05 01:30:17;;;;;;;4.75;2.22;;;;;;;;;;4177096;34;20110;-72
2022/07/05 01:32:44;;;;;;;3.37;2.00;;;;;;;;;;4163997;34;20114;-72
2022/07/05 01:35:13;;;;;;;4.22;2.30;;;;;;;;;;4176857;34;20119;-72
2022/07/05 01:37:39;;;;;;;3.37;2.20;;;;;;;;;;4176799;34;20122;-73
2022/07/05 01:40:07;;;;;;;4.07;1.95;;;;;;;;;;4176771;34;20157;-73
2022/07/05 01:42:33;;;;;;;5.87;2.05;;;;;;;;;;4176884;34;20196;-72
2022/07/05 01:44:59;;;;;;;4.57;2.00;;;;;;;;;;4176753;34;20094;-71
2022/07/05 01:47:25;;;;;;;3.70;2.00;;;;;;;;;;4176676;34;20518;-71
2022/07/05 01:49:53;;;;;;;2.20;2.00;;;;;;;;;;4176870;34;20219;-72
2022/07/05 01:52:24;;;;;;;2.90;1.95;;;;;;;;;;4164097;34;20129;-72
2022/07/05 01:54:50;;;;;;;4.82;2.10;;;;;;;;;;4163793;34;20095;-72
2022/07/05 01:57:16;;;;;;;5.18;2.55;;;;;;;;;;4163876;34;20537;-72
2022/07/05 01:59:42;;;;;;;2.15;1.95;;;;;;;;;;4176559;34;20147;-72
2022/07/05 02:02:09;;;;;;;2.30;2.10;;;;;;;;;;4163813;34;20245;-72
2022/07/05 02:04:35;;;;;;;4.05;1.98;;;;;;;;;;4176488;34;20506;-73
2022/07/05 02:07:06;;;;;;;3.65;2.12;;;;;;;;;;4176455;34;20114;-73
2022/07/05 02:09:32;;;;;;;1.92;1.77;;;;;;;;;;4163727;34;20107;-73
2022/07/05 02:11:58;;;;;;;3.10;2.22;;;;;;;;;;4176716;34;20431;-73
2022/07/05 02:14:24;;;;;;;3.58;2.40;;;;;;;;;;4176393;34;20127;-73
2022/07/05 02:16:50;;;;;;;4.68;2.33;;;;;;;;;;4176709;34;20470;-73
2022/07/05 02:19:16;;;;;;;4.15;2.25;;;;;;;;;;4176282;34;20118;-74
2022/07/05 02:21:42;;;;;;;3.12;2.40;;;;;;;;;;4163617;34;20546;-73
2022/07/05 02:24:08;;;;;;;4.65;2.10;;;;;;;;;;4176473;34;20506;-73
2022/07/05 02:26:34;;;;;;;8.48;2.30;;;;;;;;;;4163603;34;20126;-74
2022/07/05 02:29:02;;;;;;;2.37;2.15;;;;;;;;;;4176202;34;20223;-73
2022/07/05 02:31:28;;;;;;;4.30;2.17;;;;;;;;;;4176275;34;20247;-73
2022/07/05 02:33:54;;;;;;;4.05;2.08;;;;;;;;;;4176389;34;20130;-72
2022/07/05 02:36:20;;;;;;;2.58;2.08;;;;;;;;;;4176461;34;20121;-72
2022/07/05 02:38:46;;;;;;;4.32;1.98;;;;;;;;;;4176201;34;20114;-71
2022/07/05 02:41:12;;;;;;;2.30;2.00;;;;;;;;;;4176096;34;20137;-72
2022/07/05 02:43:39;;;;;;;5.25;1.98;;;;;;;;;;4163591;34;20119;-71
2022/07/05 02:46:06;;;;;;;7.03;2.08;;;;;;;;;;4178246;34;20094;-71
2022/07/05 02:48:34;;;;;;;2.87;2.00;;;;;;;;;;4165487;34;20191;-72
2022/07/05 02:51:00;;;;;;;3.17;2.58;;;;;;;;;;4165725;34;20533;-73
2022/07/05 02:53:26;;;;;;;2.20;2.00;;;;;;;;;;4165407;34;20115;-72
2022/07/05 02:55:52;;;;;;;4.10;2.30;;;;;;;;;;4178334;34;21089;-73
2022/07/05 02:58:18;;;;;;;2.28;1.98;;;;;;;;;;4165567;34;20103;-70
2022/07/05 03:00:47;;;;;;;3.62;2.00;;;;;;;;;;4178128;34;20141;-71
2022/07/05 03:03:14;;;;;;;2.10;1.87;;;;;;;;;;4178132;34;20203;-71
2022/07/05 03:05:40;;;;;;;2.08;1.80;;;;;;;;;;4178101;34;20118;-71
2022/07/05 03:08:06;;;;;;;2.53;2.17;;;;;;;;;;4177904;34;20498;-71
2022/07/05 03:10:33;;;;;;;2.15;1.92;;;;;;;;;;4165352;34;20141;-70
2022/07/05 03:13:00;;;;;;;2.67;2.10;;;;;;;;;;4178030;34;20134;-71
2022/07/05 03:15:26;;;;;;;2.75;1.70;;;;;;;;;;4178265;34;20114;-70
2022/07/05 03:17:52;;;;;;;2.20;1.75;;;;;;;;;;4177908;34;20737;-70
2022/07/05 03:20:18;;;;;;;5.15;1.58;;;;;;;;;;4178067;34;20590;-70
2022/07/05 03:22:44;;;;;;;2.65;2.03;;;;;;;;;;4177860;34;20522;-70
2022/07/05 03:25:10;;;;;;;3.10;1.60;;;;;;;;;;4178204;34;20114;-70
2022/07/05 03:27:36;;;;;;;2.83;1.70;;;;;;;;;;4177987;34;20107;-71
2022/07/05 03:30:04;;;;;;;1.95;1.50;;;;;;;;;;4177864;34;20107;-71
2022/07/05 03:32:30;;;;;;;2.15;1.65;;;;;;;;;;4165125;34;20121;-70
2022/07/05 03:34:56;;;;;;;4.65;1.62;;;;;;;;;;4177393;34;20542;-68
2022/07/05 03:37:22;;;;;;;4.80;2.65;;;;;;;;;;4153400;34;20202;-71
2022/07/05 03:39:48;;;;;;;3.53;1.67;;;;;;;;;;4177542;34;20109;-69
2022/07/05 03:42:14;;;;;;;2.75;1.65;;;;;;;;;;4177102;34;20224;-71
2022/07/05 03:44:40;;;;;;;4.57;1.83;;;;;;;;;;4177764;34;20118;-70
2022/07/05 03:47:06;;;;;;;2.17;1.98;;;;;;;;;;4165161;34;20529;-71
2022/07/05 03:49:32;;;;;;;19.85;2.40;;;;;;;;;;4177977;34;20114;-68
2022/07/05 03:51:58;;;;;;;2.28;1.60;;;;;;;;;;4177879;34;20134;-68
2022/07/05 03:54:24;;;;;;;2.30;1.65;;;;;;;;;;4177229;34;20130;-68
2022/07/05 03:56:51;;;;;;;2.62;1.52;;;;;;;;;;4177151;34;20207;-69
2022/07/05 03:59:17;;;;;;;2.92;1.83;;;;;;;;;;4177562;34;20283;-69
2022/07/05 04:01:43;;;;;;;2.17;1.67;;;;;;;;;;4177616;34;20137;-66
2022/07/05 04:04:09;;;;;;;2.25;1.60;;;;;;;;;;4177739;34;20106;-67
2022/07/05 04:06:35;;;;;;;3.67;1.95;;;;;;;;;;4177778;34;20130;-66
2022/07/05 04:09:01;;;;;;;1.70;1.60;;;;;;;;;;4177507;34;20545;-67
2022/07/05 04:11:27;;;;;;;3.58;1.70;;;;;;;;;;4177482;34;20127;-66
2022/07/05 04:13:53;;;;;;;4.65;1.70;;;;;;;;;;4177471;34;20150;-66
2022/07/05 04:16:19;;;;;;;1.80;1.52;;;;;;;;;;4177755;34;20553;-67
2022/07/05 04:18:45;;;;;;;1.65;1.52;;;;;;;;;;4177220;34;20114;-67
2022/07/05 04:21:11;;;;;;;3.60;1.80;;;;;;;;;;4177033;34;20219;-69
2022/07/05 04:23:37;;;;;;;4.22;1.92;;;;;;;;;;4177138;34;20137;-68
2022/07/05 04:26:03;;;;;;;1.50;1.40;;;;;;;;;;4177222;34;20560;-70
2022/07/05 04:28:32;;;;;;;4.00;1.85;;;;;;;;;;4176430;34;20122;-69
2022/07/05 04:30:58;;;;;;;1.70;1.52;;;;;;;;;;4177466;34;20099;-71
2022/07/05 04:33:25;;;;;;;5.97;1.80;;;;;;;;;;4171587;34;20109;-70
2022/07/05 04:35:51;;;;;;;1.60;1.20;;;;;;;;;;4177516;34;20606;-69
2022/07/05 04:38:17;;;;;;;7.07;1.65;;;;;;;;;;4171918;34;20122;-69
2022/07/05 04:40:43;;;;;;;9.63;1.58;;;;;;;;;;4177322;34;20589;-70
2022/07/05 04:43:09;;;;;;;2.20;1.70;;;;;;;;;;4171527;34;20110;-69
2022/07/05 04:45:35;;;;;;;3.83;1.62;;;;;;;;;;4177323;34;20124;-70
2022/07/05 04:48:01;;;;;;;2.92;1.60;;;;;;;;;;4171546;34;20138;-70
2022/07/05 04:50:27;;;;;;;2.65;1.55;;;;;;;;;;4177521;34;20150;-69
2022/07/05 04:52:53;;;;;;;6.60;1.77;;;;;;;;;;4172073;34;20170;-71
2022/07/05 04:55:19;;;;;;;5.90;1.67;;;;;;;;;;4176852;34;20201;-71
2022/07/05 04:57:45;;;;;;;2.83;1.60;;;;;;;;;;4172670;34;20123;-70
2022/07/05 05:00:13;;;;;;;1.40;1.30;;;;;;;;;;4176133;34;20126;-69
2022/07/05 05:02:40;;;;;;;2.40;1.40;;;;;;;;;;4173271;34;20137;-71
2022/07/05 05:05:06;;;;;;;1.40;1.30;;;;;;;;;;4162890;34;20102;-70
2022/07/05 05:07:34;;;;;;;1.58;1.40;;;;;;;;;;4161095;34;20110;-72
2022/07/05 05:10:00;;;;;;;3.92;1.50;;;;;;;;;;4174893;34;20138;-73
2022/07/05 05:12:26;;;;;;;1.60;1.50;;;;;;;;;;4174508;34;20122;-72
2022/07/05 05:14:52;;;;;;;2.45;1.60;;;;;;;;;;4174241;34;20137;-73
2022/07/05 05:17:18;;;;;;;1.62;1.52;;;;;;;;;;4175464;34;21007;-73
2022/07/05 05:19:44;;;;;;;2.55;1.48;;;;;;;;;;4173293;34;20111;-74
2022/07/05 05:22:11;;;;;;;2.47;1.50;;;;;;;;;;4175991;34;20292;-70
2022/07/05 05:24:37;;;;;;;1.42;1.20;;;;;;;;;;4159884;34;20107;-69
2022/07/05 05:27:04;;;;;;;1.45;1.35;;;;;;;;;;4176491;34;20217;-72
2022/07/05 05:29:30;;;;;;;1.48;1.37;;;;;;;;;;4172001;34;20195;-73
2022/07/05 05:31:56;;;;;;;1.60;1.50;;;;;;;;;;4177102;34;20137;-72
2022/07/05 05:34:22;;;;;;;1.37;1.27;;;;;;;;;;4171044;34;20126;-81
2022/07/05 05:36:48;;;;;;;3.67;1.40;;;;;;;;;;4177177;34;20202;-72
2022/07/05 05:39:14;;;;;;;2.35;1.50;;;;;;;;;;4171205;34;20134;-69
2022/07/05 05:41:41;;;;;;;1.55;1.45;;;;;;;;;;4176686;34;20140;-72
2022/07/05 05:44:07;;;;;;;2.35;1.37;;;;;;;;;;4171073;34;20630;-72
2022/07/05 05:46:33;;;;;;;3.30;1.45;;;;;;;;;;4176690;34;20121;-70
2022/07/05 05:48:59;;;;;;;1.40;1.30;;;;;;;;;;4171052;34;20105;-71
2022/07/05 05:51:25;;;;;;;1.95;1.20;;;;;;;;;;4176925;34;20126;-70
2022/07/05 05:53:51;;;;;;;2.45;1.50;;;;;;;;;;4173439;34;20095;-75
2022/07/05 05:56:17;;;;;;;2.50;2.15;;;;;;;;;;4178770;34;20132;-78
2022/07/05 05:58:43;;;;;;;2.35;1.30;;;;;;;;;;4173482;34;20118;-75
2022/07/05 06:01:09;;;;;;;1.80;1.33;;;;;;;;;;4177703;34;20230;-77
2022/07/05 06:03:35;;;;;;;2.12;1.52;;;;;;;;;;4171209;34;20118;-75
2022/07/05 06:06:01;;;;;;;5.72;1.52;;;;;;;;;;4176955;34;20114;-76
2022/07/05 06:08:27;;;;;;;3.22;1.50;;;;;;;;;;4171063;34;20553;-75
2022/07/05 06:10:53;;;;;;;1.60;1.50;;;;;;;;;;4176722;34;20485;-75
2022/07/05 06:13:20;;;;;;;2.12;1.50;;;;;;;;;;4171208;34;20141;-82
2022/07/05 06:15:46;;;;;;;1.77;1.50;;;;;;;;;;4176895;34;20218;-82
2022/07/05 06:18:12;;;;;;;3.42;1.67;;;;;;;;;;4170990;34;20130;-72
2022/07/05 06:20:39;;;;;;;1.40;1.30;;;;;;;;;;4178934;34;20208;-80
2022/07/05 06:23:06;;;;;;;2.33;1.58;;;;;;;;;;4161111;34;20204;-83
2022/07/05 06:25:33;;;;;;;5.03;1.67;;;;;;;;;;4167032;34;20224;-81
2022/07/05 06:28:04;;;;;;;2.05;1.60;;;;;;;;;;4174063;34;20516;-84
2022/07/05 06:30:32;;;;;;;2.60;1.77;;;;;;;;;;4179697;34;20592;-82
2022/07/05 06:32:58;;;;;;;1.87;1.77;;;;;;;;;;4166746;34;20106;-80
2022/07/05 06:35:25;;;;;;;1.60;1.50;;;;;;;;;;4179259;34;20125;-81
2022/07/05 06:37:58;;;;;;;2.97;1.70;;;;;;;;;;4166245;34;20093;-79
2022/07/05 06:40:26;;;;;;;3.90;1.85;;;;;;;;;;4178934;34;20110;-76
2022/07/05 06:42:54;;;;;;;2.58;1.55;;;;;;;;;;4178701;34;20138;-76
2022/07/05 06:45:20;;;;;;;2.62;1.90;;;;;;;;;;4178598;34;20549;-76
2022/07/05 06:47:57;;;;;;;3.60;1.70;;;;;;;;;;4178426;34;20125;-76
2022/07/05 06:50:23;;;;;;;3.33;1.42;;;;;;;;;;4166087;34;20102;-80
2022/07/05 06:52:49;;;;;;;3.87;1.60;;;;;;;;;;4178310;34;20440;-76
2022/07/05 06:55:15;;;;;;;1.62;1.48;;;;;;;;;;4178546;34;20218;-76
2022/07/05 06:57:43;;;;;;;2.55;2.00;;;;;;;;;;4178467;34;20106;-76
2022/07/05 07:00:10;;;;;;;2.70;2.30;;;;;;;;;;4178302;34;20149;-76
2022/07/05 07:02:36;;;;;;;1.98;1.52;;;;;;;;;;4178345;34;20281;-76
2022/07/05 07:05:02;;;;;;;3.00;1.90;;;;;;;;;;4178277;34;20119;-76
2022/07/05 07:10:15;;;;;;;1.70;1.52;;;;;;;;;;4178332;34;20529;-71
2022/07/05 07:12:41;;;;;;;2.55;1.73;;;;;;;;;;4178183;34;20122;-73
2022/07/05 07:15:08;;;;;;;4.07;3.30;;;;;;;;;;4178325;34;20234;-78
2022/07/05 07:17:34;;;;;;;1.87;1.70;;;;;;;;;;4165551;34;20482;-78
2022/07/05 07:20:00;;;;;;;2.28;1.80;;;;;;;;;;4178138;34;20111;-79
2022/07/05 07:22:26;;;;;;;2.95;2.60;;;;;;;;;;4178276;34;20114;-78
2022/07/05 07:24:53;;;;;;;2.10;1.70;;;;;;;;;;4178553;34;20323;-79
2022/07/05 07:27:19;;;;;;;2.30;1.67;;;;;;;;;;4178172;34;20199;-78
2022/07/05 07:29:46;;;;;;;2.17;1.58;;;;;;;;;;4165797;34;20102;-77
2022/07/05 07:32:12;;;;;;;1.80;1.65;;;;;;;;;;4178608;34;20215;-77
2022/07/05 07:34:39;;;;;;;3.33;1.87;;;;;;;;;;4178248;34;20191;-77
2022/07/05 07:37:05;;;;;;;2.12;1.48;;;;;;;;;;4165377;34;20105;-76
2022/07/05 07:39:32;;;;;;;1.67;1.58;;;;;;;;;;4178015;34;20149;-77
2022/07/05 07:41:58;;;;;;;2.80;2.10;;;;;;;;;;4165477;34;20129;-77
2022/07/05 07:44:24;;;;;;;2.20;2.00;;;;;;;;;;4177911;34;20099;-76
2022/07/05 07:46:51;;;;;;;4.37;2.40;;;;;;;;;;4165228;34;20126;-74
2022/07/05 07:49:17;;;;;;;2.60;2.15;;;;;;;;;;4177584;34;20207;-74
2022/07/05 07:51:43;;;;;;;2.20;1.70;;;;;;;;;;4164911;34;20568;-74
2022/07/05 07:54:10;;;;;;;3.17;1.80;;;;;;;;;;4178111;34;20102;-74
2022/07/05 07:56:36;;;;;;;7.55;1.80;;;;;;;;;;4177684;34;20103;-74
2022/07/05 07:59:02;;;;;;;3.85;1.87;;;;;;;;;;4177596;34;20592;-74
2022/07/05 08:01:28;;;;;;;2.20;1.83;;;;;;;;;;4177953;34;20130;-74
2022/07/05 08:03:54;;;;;;;2.37;2.10;;;;;;;;;;4176430;34;20114;-73
2022/07/05 08:06:20;;;;;;;3.45;1.67;;;;;;;;;;4164890;34;20222;-73
2022/07/05 08:08:47;;;;;;;1.52;1.42;;;;;;;;;;4177736;34;20511;-75
2022/07/05 08:11:15;;;;;;;1.50;1.40;;;;;;;;;;4177737;34;20098;-68
2022/07/05 08:13:42;;;;;;;2.55;1.60;;;;;;;;;;4177503;34;20107;-76
2022/07/05 08:16:11;;;;;;;1.75;1.65;;;;;;;;;;4165149;34;20261;-74
2022/07/05 08:21:31;;;;;;;1.70;1.45;;;;;;;;;;4177412;34;20118;-72
2022/07/05 08:24:05;;;;;;;2.47;2.25;;;;;;;;;;4177555;34;20550;-75
2022/07/05 08:26:32;;;;;;;2.72;1.90;;;;;;;;;;4177928;34;20195;-79
2022/07/05 08:29:03;;;;;;;4.93;2.03;;;;;;;;;;4164996;34;20106;-76
2022/07/05 08:31:31;;;;;;;2.00;1.80;;;;;;;;;;4165544;34;20451;-78
2022/07/05 08:33:58;;;;;;;2.15;1.90;;;;;;;;;;4177705;34;20130;-76
2022/07/05 08:36:25;;;;;;;5.82;1.65;;;;;;;;;;4177650;34;20102;-71
2022/07/05 08:38:51;;;;;;;2.35;1.85;;;;;;;;;;4177554;34;20121;-76
2022/07/05 08:41:21;;;;;;;1.83;1.73;;;;;;;;;;4177176;34;20216;-77
2022/07/05 08:43:48;;;;;;;2.37;2.08;;;;;;;;;;4165348;34;20439;-77
2022/07/05 08:46:16;;;;;;;4.70;1.90;;;;;;;;;;4177640;34;20129;-71
2022/07/05 08:48:43;;;;;;;1.20;1.20;;;;;;;;;;4177317;34;20150;-73
2022/07/05 08:51:14;;;;;;;1.80;1.60;;;;;;;;;;4164464;34;20527;-71
2022/07/05 08:53:41;;;;;;;2.08;1.65;;;;;;;;;;4177433;34;20134;-76
2022/07/05 08:56:12;;;;;;;1.30;1.20;;;;;;;;;;4177258;34;20207;-72
2022/07/05 08:58:38;;;;;;;4.45;1.40;;;;;;;;;;4177324;34;20110;-70
2022/07/05 09:01:05;;;;;;;1.90;1.70;;;;;;;;;;4164818;34;20109;-72
2022/07/05 09:03:39;;;;;;;1.15;1.15;;;;;;;;;;4177054;34;20537;-70
2022/07/05 09:06:08;;;;;;;1.50;1.40;;;;;;;;;;4164570;34;20113;-71
2022/07/05 09:08:39;;;;;;;2.45;1.77;;;;;;;;;;4164689;34;20110;-72
2022/07/05 09:11:13;;;;;;;4.78;1.98;;;;;;;;;;4177190;34;20211;-72
2022/07/05 09:13:41;;;;;;;1.50;1.40;;;;;;;;;;4177107;34;20111;-72
2022/07/05 09:16:07;;;;;;;6.62;1.60;;;;;;;;;;4164428;34;20200;-73
2022/07/05 09:18:54;;;;;;;3.40;1.60;;;;;;;;;;4164716;34;20280;-72
2022/07/05 09:21:27;;;;;;;3.15;1.98;;;;;;;;;;4177078;34;20538;-72
2022/07/05 09:24:08;;;;;;;3.15;1.55;;;;;;;;;;4164468;34;20467;-73
2022/07/05 09:26:38;;;;;;;1.65;1.37;;;;;;;;;;4177232;34;20117;-67
2022/07/05 09:29:09;;;;;;;1.65;1.40;;;;;;;;;;4177122;34;20107;-68
2022/07/05 09:31:40;;;;;;;4.60;1.85;;;;;;;;;;4176661;34;20443;-68
2022/07/05 09:34:14;;;;;;;1.67;1.50;;;;;;;;;;4175660;34;20126;-67
2022/07/05 09:36:58;;;;;;;2.00;1.60;;;;;;;;;;4176833;34;20094;-68
2022/07/05 09:39:34;;;;;;;1.73;1.63;;;;;;;;;;4176866;34;20114;-68
2022/07/05 09:42:20;;;;;;;1.65;1.55;;;;;;;;;;4176688;34;20250;-67
2022/07/05 09:44:54;;;;;;;2.25;1.87;;;;;;;;;;4176783;34;20098;-68
2022/07/05 09:47:22;;;;;;;1.83;1.73;;;;;;;;;;4176772;34;20524;-68
2022/07/05 09:49:50;;;;;;;1.50;1.40;;;;;;;;;;4176830;34;20110;-68
2022/07/05 09:52:27;;;;;;;2.08;1.62;;;;;;;;;;4177103;34;20114;-69
2022/07/05 09:55:16;;;;;;;2.92;1.70;;;;;;;;;;4165996;34;20126;-68
2022/07/05 09:57:42;;;;;;;1.55;1.45;;;;;;;;;;4178764;34;20778;-68
2022/07/05 10:00:12;;;;;;;1.60;1.50;;;;;;;;;;4166242;34;20194;-68
2022/07/05 10:02:39;;;;;;;3.42;1.90;;;;;;;;;;4178602;34;20130;-68
2022/07/05 10:05:21;;;;;;;4.43;1.67;;;;;;;;;;4178667;34;20122;-68
2022/07/05 10:07:52;;;;;;;1.62;1.52;;;;;;;;;;4178599;34;20115;-68
2022/07/05 10:10:19;;;;;;;5.05;1.75;;;;;;;;;;4178687;34;20203;-68
2022/07/05 10:12:53;;;;;;;1.83;1.65;;;;;;;;;;4178456;34;20110;-68
2022/07/05 10:15:21;;;;;;;2.30;2.10;;;;;;;;;;4178627;34;20181;-68
2022/07/05 10:17:56;;;;;;;8.40;2.70;;;;;;;;;;4178430;34;20102;-68
2022/07/05 10:20:28;;;;;;;1.15;1.05;;;;;;;;;;4165739;34;20134;-69
2022/07/05 10:22:54;;;;;;;9.45;2.87;;;;;;;;;;4165737;34;20201;-68
2022/07/05 10:25:21;;;;;;;4.30;2.22;;;;;;;;;;4165854;34;20232;-68
2022/07/05 10:27:47;;;;;;;2.45;2.00;;;;;;;;;;4165609;34;20111;-68
2022/07/05 10:30:15;;;;;;;1.85;1.70;;;;;;;;;;4178459;34;20114;-68
2022/07/05 10:32:42;;;;;;;1.75;1.65;;;;;;;;;;4165623;34;20122;-68
2022/07/05 10:35:09;;;;;;;3.28;1.73;;;;;;;;;;4178445;34;20106;-68
2022/07/05 10:37:35;;;;;;;1.67;1.58;;;;;;;;;;4178481;34;20583;-68
2022/07/05 10:40:03;;;;;;;4.05;1.92;;;;;;;;;;4165655;34;20194;-68
2022/07/05 10:42:56;;;;;;;2.40;1.60;;;;;;;;;;4178284;34;20486;-68
2022/07/05 10:45:33;;;;;;;1.52;1.40;;;;;;;;;;4161560;34;20107;-68
2022/07/05 10:48:14;;;;;;;2.90;1.70;;;;;;;;;;4178369;34;20536;-68
2022/07/05 10:50:44;;;;;;;1.70;1.60;;;;;;;;;;4178288;34;20122;-68
2022/07/05 10:53:10;;;;;;;1.65;1.55;;;;;;;;;;4178115;34;20220;-68
2022/07/05 10:56:01;;;;;;;1.52;1.42;;;;;;;;;;4177849;34;20451;-67
2022/07/05 10:58:29;;;;;;;1.10;1.10;;;;;;;;;;4160360;34;20126;-67
2022/07/05 11:01:20;;;;;;;1.45;1.35;;;;;;;;;;4165506;34;20217;-65
2022/07/05 11:03:57;;;;;;;1.80;1.70;;;;;;;;;;4177910;34;20087;-67
2022/07/05 11:06:23;;;;;;;1.95;1.83;;;;;;;;;;4178227;34;20239;-66
2022/07/05 11:09:05;;;;;;;3.55;2.10;;;;;;;;;;4178307;34;20194;-67
2022/07/05 11:11:37;;;;;;;1.70;1.60;;;;;;;;;;4178071;34;20537;-78
2022/07/05 11:14:06;;;;;;;2.20;1.80;;;;;;;;;;4177912;34;20132;-71
2022/07/05 11:16:36;;;;;;;2.55;2.08;;;;;;;;;;4178015;34;20197;-68
2022/07/05 11:19:05;;;;;;;1.80;1.70;;;;;;;;;;4165385;34;20203;-69
2022/07/05 11:21:34;;;;;;;2.10;1.90;;;;;;;;;;4177878;34;20633;-69
2022/07/05 11:24:18;;;;;;;2.53;1.85;;;;;;;;;;4177871;34;20557;-70
2022/07/05 11:26:45;;;;;;;3.47;2.10;;;;;;;;;;4178152;34;20566;-69
2022/07/05 11:29:43;;;;;;;2.50;1.95;;;;;;;;;;4165203;34;20107;-69
2022/07/05 11:32:20;;;;;;;2.85;2.10;;;;;;;;;;4178068;34;20110;-68
2022/07/05 11:34:48;;;;;;;5.07;2.22;;;;;;;;;;4178072;34;20098;-68
2022/07/05 11:37:14;;;;;;;2.87;2.05;;;;;;;;;;4177818;34;20515;-68
2022/07/05 11:39:40;;;;;;;3.15;2.12;;;;;;;;;;4177905;34;20142;-69
2022/07/05 11:42:09;;;;;;;4.22;2.45;;;;;;;;;;4177788;34;20103;-69
2022/07/05 11:44:36;;;;;;;4.70;2.35;;;;;;;;;;4177741;34;20477;-69
2022/07/05 11:47:03;;;;;;;2.05;1.87;;;;;;;;;;4177759;34;20464;-69
2022/07/05 11:49:29;;;;;;;2.78;2.00;;;;;;;;;;4177991;34;20099;-68
2022/07/05 11:52:00;;;;;;;2.30;2.10;;;;;;;;;;4177868;34;20129;-69
2022/07/05 11:54:28;;;;;;;3.08;2.50;;;;;;;;;;4177605;34;20541;-69
2022/07/05 11:56:54;;;;;;;5.87;2.30;;;;;;;;;;4177664;34;20652;-77
2022/07/05 11:59:21;;;;;;;2.70;2.25;;;;;;;;;;4164682;34;20130;-67
2022/07/05 12:01:47;;;;;;;2.40;2.20;;;;;;;;;;4177593;34;20110;-70
2022/07/05 12:04:23;;;;;;;2.53;2.15;;;;;;;;;;4177641;34;20215;-70
2022/07/05 12:06:50;;;;;;;3.80;2.00;;;;;;;;;;4177625;34;20091;-69
2022/07/05 12:09:23;;;;;;;2.08;1.90;;;;;;;;;;4177528;34;20114;-70
2022/07/05 12:14:49;;;;;;;5.18;2.83;;;;;;;;;;4166261;34;20209;-69
2022/07/05 12:17:19;;;;;;;3.47;2.35;;;;;;;;;;4176609;34;20114;-70
2022/07/05 12:19:46;;;;;;;2.30;2.10;;;;;;;;;;4177480;34;20288;-69
2022/07/05 12:22:12;;;;;;;3.47;2.30;;;;;;;;;;4177363;34;20122;-71
2022/07/05 12:24:39;;;;;;;2.92;2.55;;;;;;;;;;4177515;34;20210;-70
2022/07/05 12:27:05;;;;;;;16.73;3.97;;;;;;;;;;4177563;34;20125;-76
2022/07/05 12:29:31;;;;;;;2.70;2.28;;;;;;;;;;4164960;34;20094;-70
2022/07/05 12:31:59;;;;;;;2.67;2.22;;;;;;;;;;4177378;34;20126;-69
2022/07/05 12:34:26;;;;;;;4.32;3.05;;;;;;;;;;4177313;34;20098;-69
2022/07/05 12:36:52;;;;;;;2.40;2.20;;;;;;;;;;4177364;34;20126;-68
2022/07/05 12:39:18;;;;;;;2.55;2.35;;;;;;;;;;4164844;34;20102;-68
2022/07/05 12:41:44;;;;;;;2.55;2.15;;;;;;;;;;4177239;34;20463;-69
2022/07/05 12:44:10;;;;;;;2.75;2.35;;;;;;;;;;4177370;34;20530;-69
2022/07/05 12:46:37;;;;;;;3.15;2.65;;;;;;;;;;4177462;34;20133;-70
2022/07/05 12:49:03;;;;;;;2.60;2.40;;;;;;;;;;4177407;34;20222;-68
2022/07/05 12:51:34;;;;;;;2.70;2.08;;;;;;;;;;4177217;34;20128;-67
2022/07/05 12:59:38;;;;;;;12.02;2.22;;;;;;;;;;4177910;34;20519;-68
2022/07/05 13:02:09;;;;;;;3.22;2.10;;;;;;;;;;4177797;34;20121;-70
2022/07/05 13:04:39;;;;;;;3.08;1.73;;;;;;;;;;4165156;34;20213;-70
2022/07/05 13:07:05;;;;;;;1.90;1.80;;;;;;;;;;4175359;34;20113;-68
2022/07/05 13:09:36;;;;;;;5.85;2.00;;;;;;;;;;4177721;34;20099;-68
2022/07/05 13:12:21;;;;;;;3.85;1.90;;;;;;;;;;4177346;34;20095;-67
2022/07/05 13:14:49;;;;;;;1.98;1.77;;;;;;;;;;4177207;34;20115;-68
2022/07/05 13:17:21;;;;;;;3.55;1.62;;;;;;;;;;4177244;34;20165;-68
2022/07/05 13:19:48;;;;;;;1.98;1.67;;;;;;;;;;4177154;34;20106;-68
2022/07/05 13:22:14;;;;;;;2.20;1.70;;;;;;;;;;4176723;34;20223;-67
2022/07/05 13:24:41;;;;;;;3.50;1.70;;;;;;;;;;4177098;34;20204;-68
2022/07/05 13:27:08;;;;;;;4.70;2.60;;;;;;;;;;4176845;34;20501;-65
2022/07/05 13:29:35;;;;;;;2.58;1.87;;;;;;;;;;4164385;34;20210;-68
2022/07/05 13:32:01;;;;;;;2.55;1.73;;;;;;;;;;4176709;34;20129;-69
2022/07/05 13:34:28;;;;;;;1.87;1.70;;;;;;;;;;4176650;34;20170;-69
2022/07/05 13:36:55;;;;;;;2.05;1.85;;;;;;;;;;4176829;34;20117;-69
2022/07/05 13:39:22;;;;;;;2.65;2.10;;;;;;;;;;4176786;34;20674;-68
2022/07/05 13:41:50;;;;;;;2.05;1.90;;;;;;;;;;4176864;34;20106;-68
2022/07/05 13:44:16;;;;;;;3.83;2.20;;;;;;;;;;4176763;34;20114;-68
2022/07/05 13:46:42;;;;;;;2.33;1.98;;;;;;;;;;4176927;34;20118;-67
2022/07/05 13:49:08;;;;;;;2.33;1.98;;;;;;;;;;4176799;34;20134;-68
2022/07/05 13:51:34;;;;;;;3.22;2.33;;;;;;;;;;4176641;34;20136;-68
2022/07/05 13:54:00;;;;;;;6.78;2.10;;;;;;;;;;4176688;34;20529;-68
2022/07/05 13:56:26;;;;;;;2.85;2.15;;;;;;;;;;4176667;34;20127;-68
2022/07/05 13:58:54;;;;;;;3.60;1.98;;;;;;;;;;4176387;34;20105;-68
2022/07/05 14:01:26;;;;;;;4.93;2.10;;;;;;;;;;4163867;34;20146;-68
2022/07/05 14:03:53;;;;;;;2.22;2.00;;;;;;;;;;4176405;34;20280;-68
2022/07/05 14:06:20;;;;;;;2.10;1.92;;;;;;;;;;4176540;34;20516;-70
2022/07/05 14:08:46;;;;;;;2.35;2.00;;;;;;;;;;4176262;34;20538;-69
2022/07/05 14:11:12;;;;;;;2.22;1.95;;;;;;;;;;4163729;34;20126;-74
2022/07/05 14:13:40;;;;;;;2.37;2.03;;;;;;;;;;4176467;34;20125;-65
2022/07/05 14:16:07;;;;;;;3.97;1.85;;;;;;;;;;4176410;34;20515;-64
2022/07/05 14:18:33;;;;;;;2.08;1.87;;;;;;;;;;4176175;34;20148;-65
2022/07/05 14:20:59;;;;;;;2.20;2.00;;;;;;;;;;4176326;34;20467;-67
2022/07/05 14:23:25;;;;;;;5.15;2.22;;;;;;;;;;4176244;34;20106;-66
2022/07/05 14:25:51;;;;;;;3.17;1.92;;;;;;;;;;4176291;34;20134;-67
2022/07/05 14:28:17;;;;;;;3.10;2.20;;;;;;;;;;4176213;34;20174;-67
2022/07/05 14:30:45;;;;;;;2.30;2.10;;;;;;;;;;4176222;34;20129;-64
2022/07/05 14:33:12;;;;;;;6.03;2.80;;;;;;;;;;4175956;34;20111;-64
2022/07/05 14:35:39;;;;;;;6.68;2.05;;;;;;;;;;4176190;34;20133;-66
2022/07/05 14:38:06;;;;;;;2.28;2.00;;;;;;;;;;4176202;34;20113;-66
2022/07/05 14:40:32;;;;;;;2.00;1.80;;;;;;;;;;4165104;34;20097;-66
2022/07/05 14:42:59;;;;;;;3.50;2.15;;;;;;;;;;4178162;34;20478;-66
2022/07/05 14:45:25;;;;;;;3.17;2.20;;;;;;;;;;4178142;34;20102;-67
2022/07/05 14:47:52;;;;;;;2.83;1.87;;;;;;;;;;4178226;34;20464;-66
2022/07/05 14:50:18;;;;;;;2.30;1.87;;;;;;;;;;4178285;34;20114;-66
2022/07/05 14:52:46;;;;;;;4.07;2.20;;;;;;;;;;4178229;34;20224;-64
2022/07/05 14:55:12;;;;;;;3.12;1.90;;;;;;;;;;4178252;34;20113;-66
2022/07/05 14:57:39;;;;;;;2.53;2.12;;;;;;;;;;4178080;34;20128;-65
2022/07/05 15:00:07;;;;;;;2.40;1.90;;;;;;;;;;4178086;34;20099;-65
2022/07/05 15:02:33;;;;;;;2.60;1.95;;;;;;;;;;4178051;34;20114;-66
2022/07/05 15:04:59;;;;;;;5.20;2.08;;;;;;;;;;4178135;34;20107;-66
2022/07/05 15:07:26;;;;;;;7.53;2.80;;;;;;;;;;4178084;34;20521;-65
2022/07/05 15:09:52;;;;;;;2.92;2.40;;;;;;;;;;4177983;34;20118;-70
2022/07/05 15:12:18;;;;;;;4.93;2.22;;;;;;;;;;4178020;34;20154;-66
2022/07/05 15:14:45;;;;;;;2.30;1.90;;;;;;;;;;4178038;34;20106;-67
2022/07/05 15:17:11;;;;;;;2.85;2.25;;;;;;;;;;4178191;34;20086;-67
2022/07/05 15:19:38;;;;;;;2.65;2.10;;;;;;;;;;4177996;34;20102;-67
2022/07/05 15:22:08;;;;;;;2.62;2.40;;;;;;;;;;4178016;34;20117;-65
2022/07/05 15:24:34;;;;;;;2.42;2.12;;;;;;;;;;4177930;34;20201;-67
2022/07/05 15:27:00;;;;;;;4.28;1.80;;;;;;;;;;4177859;34;20124;-67
2022/07/05 15:29:28;;;;;;;2.75;2.10;;;;;;;;;;4177157;34;20106;-66